createdAt,value
2019-03-01T00:00:16.299Z,1006.36
2019-03-01T00:01:26.343Z,1006.37
2019-03-01T00:02:36.031Z,1006.35
2019-03-01T00:03:45.717Z,1006.32
2019-03-01T00:04:55.412Z,1006.34
2019-03-01T00:06:05.492Z,1006.34
2019-03-01T00:07:15.197Z,1006.28
2019-03-01T00:08:24.644Z,1006.27
2019-03-01T00:09:33.834Z,1006.28
2019-03-01T00:10:43.513Z,1006.22
2019-03-01T00:11:53.227Z,1006.27
2019-03-01T00:13:03.212Z,1006.29
2019-03-01T00:14:13.173Z,1006.32
2019-03-01T00:15:23.101Z,1006.32
2019-03-01T00:16:32.784Z,1006.36
2019-03-01T00:17:42.736Z,1006.39
2019-03-01T00:18:52.444Z,1006.4
2019-03-01T00:20:02.399Z,1006.4
2019-03-01T00:21:12.083Z,1006.39
2019-03-01T00:22:22.012Z,1006.34
2019-03-01T00:23:31.707Z,1006.38
2019-03-01T00:24:41.646Z,1006.37
2019-03-01T00:25:51.365Z,1006.36
2019-03-01T00:27:01.065Z,1006.38
2019-03-01T00:28:10.751Z,1006.36
2019-03-01T00:29:20.453Z,1006.32
2019-03-01T00:30:30.425Z,1006.33
2019-03-01T00:31:40.415Z,1006.3
2019-03-01T00:32:49.866Z,1006.31
2019-03-01T00:33:59.296Z,1006.27
2019-03-01T00:35:09.243Z,1006.3
2019-03-01T00:36:19.247Z,1006.3
2019-03-01T00:37:29.199Z,1006.31
2019-03-01T00:38:39.149Z,1006.33
2019-03-01T00:39:49.089Z,1006.34
2019-03-01T00:40:59.040Z,1006.35
2019-03-01T00:42:08.979Z,1006.34
2019-03-01T00:43:18.943Z,1006.31
2019-03-01T00:44:29.004Z,1006.3
2019-03-01T00:45:38.705Z,1006.24
2019-03-01T00:46:48.701Z,1006.19
2019-03-01T00:47:58.701Z,1006.16
2019-03-01T00:49:08.415Z,1006.18
2019-03-01T00:50:18.110Z,1006.17
2019-03-01T00:51:27.548Z,1006.17
2019-03-01T00:52:37.761Z,1006.16
2019-03-01T00:53:47.485Z,1006.16
2019-03-01T00:54:57.437Z,1006.13
2019-03-01T00:56:06.886Z,1006.15
2019-03-01T00:57:16.341Z,1006.13
2019-03-01T00:58:26.275Z,1006.12
2019-03-01T00:59:36.240Z,1006.11
2019-03-01T01:00:45.939Z,1006.07
2019-03-01T01:01:55.887Z,1006.12
2019-03-01T01:03:05.821Z,1006.11
2019-03-01T01:04:15.525Z,1006.09
2019-03-01T01:05:25.233Z,1006.05
2019-03-01T01:06:35.161Z,1006.08
2019-03-01T01:07:45.103Z,1006.04
2019-03-01T01:08:54.554Z,1006.08
2019-03-01T01:10:04.540Z,1006.04
2019-03-01T01:11:14.492Z,1006.08
2019-03-01T01:12:24.435Z,1006.05
2019-03-01T01:13:34.381Z,1006.05
2019-03-01T01:14:44.073Z,1006.03
2019-03-01T01:15:53.506Z,1006.04
2019-03-01T01:17:03.444Z,1006.02
2019-03-01T01:18:13.386Z,1006.03
2019-03-01T01:19:23.092Z,1006.03
2019-03-01T01:20:33.023Z,1006.05
2019-03-01T01:21:42.991Z,1006.04
2019-03-01T01:22:52.970Z,1005.98
2019-03-01T01:24:02.416Z,1006.05
2019-03-01T01:25:12.099Z,1006.02
2019-03-01T01:26:22.043Z,1006.02
2019-03-01T01:27:31.983Z,1005.99
2019-03-01T01:28:43.655Z,1006.04
2019-03-01T01:29:53.589Z,1006.08
2019-03-01T01:31:03.541Z,1006.02
2019-03-01T01:32:13.011Z,1006.02
2019-03-01T01:33:22.999Z,1005.99
2019-03-01T01:34:32.953Z,1005.98
2019-03-01T01:35:42.905Z,1005.98
2019-03-01T01:36:52.835Z,1005.96
2019-03-01T01:38:02.784Z,1005.97
2019-03-01T01:39:12.481Z,1005.96
2019-03-01T01:40:23.683Z,1005.91
2019-03-01T01:41:33.380Z,1005.93
2019-03-01T01:42:43.395Z,1005.89
2019-03-01T01:43:53.337Z,1005.87
2019-03-01T01:45:03.038Z,1005.87
2019-03-01T01:46:12.775Z,1005.86
2019-03-01T01:47:22.731Z,1005.86
2019-03-01T01:48:32.173Z,1005.81
2019-03-01T01:49:42.113Z,1005.78
2019-03-01T01:50:51.561Z,1005.76
2019-03-01T01:52:01.506Z,1005.62
2019-03-01T01:53:11.196Z,1005.58
2019-03-01T01:54:20.883Z,1005.53
2019-03-01T01:55:30.581Z,1005.5
2019-03-01T01:56:40.525Z,1005.49
2019-03-01T01:57:50.479Z,1005.4
2019-03-01T01:59:00.426Z,1005.42
2019-03-01T02:00:09.871Z,1005.39
2019-03-01T02:01:19.852Z,1005.36
2019-03-01T02:02:29.796Z,1005.29
2019-03-01T02:03:39.231Z,1005.24
2019-03-01T02:04:48.688Z,1005.24
2019-03-01T02:05:58.648Z,1005.31
2019-03-01T02:07:08.600Z,1005.36
2019-03-01T02:08:18.532Z,1005.34
2019-03-01T02:09:27.983Z,1005.27
2019-03-01T02:10:37.955Z,1005.29
2019-03-01T02:11:47.906Z,1005.27
2019-03-01T02:12:57.865Z,1005.29
2019-03-01T02:14:07.826Z,1005.25
2019-03-01T02:15:17.764Z,1005.24
2019-03-01T02:16:27.208Z,1005.21
2019-03-01T02:17:36.647Z,1005.25
2019-03-01T02:18:46.603Z,1005.25
2019-03-01T02:20:05.284Z,1005.27
2019-03-01T02:21:15.229Z,1005.24
2019-03-01T02:22:24.926Z,1005.24
2019-03-01T02:23:34.870Z,1005.22
2019-03-01T02:24:45.199Z,1005.23
2019-03-01T02:25:54.926Z,1005.24
2019-03-01T02:27:04.612Z,1005.27
2019-03-01T02:28:14.302Z,1005.26
2019-03-01T02:29:24.032Z,1005.25
2019-03-01T02:30:33.976Z,1005.22
2019-03-01T02:31:43.944Z,1005.15
2019-03-01T02:32:53.907Z,1005.12
2019-03-01T02:34:03.867Z,1005.14
2019-03-01T02:35:13.604Z,1005.16
2019-03-01T02:36:23.570Z,1005.12
2019-03-01T02:37:33.282Z,1005.11
2019-03-01T02:38:43.221Z,1005.12
2019-03-01T02:39:52.923Z,1005.1
2019-03-01T02:41:03.227Z,1005.1
2019-03-01T02:42:13.202Z,1005.09
2019-03-01T02:43:23.155Z,1005.07
2019-03-01T02:44:33.109Z,1005.11
2019-03-01T02:45:43.053Z,1005.11
2019-03-01T02:46:52.781Z,1005.05
2019-03-01T02:48:02.481Z,1005.03
2019-03-01T02:49:12.431Z,1005.11
2019-03-01T02:50:22.408Z,1005.12
2019-03-01T02:51:32.383Z,1005.15
2019-03-01T02:52:42.328Z,1005.13
2019-03-01T02:53:52.324Z,1005.11
2019-03-01T02:55:02.308Z,1005.09
2019-03-01T02:56:12.027Z,1005.04
2019-03-01T02:57:21.775Z,1005.1
2019-03-01T02:58:31.579Z,1005.1
2019-03-01T02:59:41.049Z,1005.1
2019-03-01T03:00:51.017Z,1005.13
2019-03-01T03:02:01.038Z,1005.12
2019-03-01T03:03:11.012Z,1005.13
2019-03-01T03:04:20.977Z,1005.1
2019-03-01T03:05:30.664Z,1005.09
2019-03-01T03:06:40.610Z,1005.06
2019-03-01T03:07:50.666Z,1005.11
2019-03-01T03:09:00.650Z,1005.1
2019-03-01T03:10:10.632Z,1005.06
2019-03-01T03:11:20.378Z,1005.07
2019-03-01T03:12:30.335Z,1005.03
2019-03-01T03:13:40.309Z,1005.08
2019-03-01T03:14:50.271Z,1005.11
2019-03-01T03:16:00.063Z,1005.08
2019-03-01T03:17:10.056Z,1005.12
2019-03-01T03:18:19.525Z,1005.08
2019-03-01T03:19:29.497Z,1005.09
2019-03-01T03:20:39.472Z,1005.12
2019-03-01T03:21:49.464Z,1005.17
2019-03-01T03:22:59.192Z,1005.17
2019-03-01T03:24:08.916Z,1005.12
2019-03-01T03:25:18.918Z,1005.1
2019-03-01T03:26:28.872Z,1005.08
2019-03-01T03:27:38.392Z,1005.05
2019-03-01T03:28:48.156Z,1004.99
2019-03-01T03:29:58.268Z,1005.07
2019-03-01T03:31:08.244Z,1005.02
2019-03-01T03:32:17.985Z,1005.1
2019-03-01T03:33:27.945Z,1005.06
2019-03-01T03:34:37.924Z,1005.07
2019-03-01T03:35:48.002Z,1005.03
2019-03-01T03:36:57.985Z,1005.03
2019-03-01T03:38:07.952Z,1004.98
2019-03-01T03:39:17.419Z,1004.98
2019-03-01T03:40:27.145Z,1004.97
2019-03-01T03:41:37.141Z,1004.95
2019-03-01T03:42:46.911Z,1004.97
2019-03-01T03:43:56.869Z,1004.99
2019-03-01T03:45:06.826Z,1005.04
2019-03-01T03:46:16.788Z,1004.98
2019-03-01T03:47:26.777Z,1005.02
2019-03-01T03:48:36.753Z,1005.02
2019-03-01T03:49:46.496Z,1005
2019-03-01T03:50:56.446Z,1005
2019-03-01T03:52:06.412Z,1005.03
2019-03-01T03:53:16.435Z,1005
2019-03-01T03:54:26.146Z,1004.98
2019-03-01T03:55:35.604Z,1004.97
2019-03-01T03:56:45.620Z,1004.9
2019-03-01T03:57:55.378Z,1004.88
2019-03-01T03:59:05.331Z,1004.86
2019-03-01T04:00:15.286Z,1004.86
2019-03-01T04:01:25.364Z,1004.87
2019-03-01T04:02:35.096Z,1004.89
2019-03-01T04:03:44.784Z,1004.92
2019-03-01T04:04:54.506Z,1004.91
2019-03-01T04:06:04.265Z,1004.82
2019-03-01T04:07:13.764Z,1004.81
2019-03-01T04:08:23.469Z,1004.81
2019-03-01T04:09:33.504Z,1004.77
2019-03-01T04:10:43.463Z,1004.72
2019-03-01T04:11:53.162Z,1004.71
2019-03-01T04:13:02.869Z,1004.64
2019-03-01T04:14:13.080Z,1004.68
2019-03-01T04:15:23.036Z,1004.69
2019-03-01T04:16:32.996Z,1004.73
2019-03-01T04:17:42.709Z,1004.69
2019-03-01T04:18:52.176Z,1004.65
2019-03-01T04:20:01.977Z,1004.53
2019-03-01T04:21:11.737Z,1004.54
2019-03-01T04:22:21.687Z,1004.57
2019-03-01T04:23:30.880Z,1004.55
2019-03-01T04:24:40.595Z,1004.56
2019-03-01T04:25:50.556Z,1004.55
2019-03-01T04:27:00.261Z,1004.52
2019-03-01T04:28:10.224Z,1004.54
2019-03-01T04:29:20.216Z,1004.54
2019-03-01T04:30:30.183Z,1004.51
2019-03-01T04:31:39.892Z,1004.52
2019-03-01T04:32:49.860Z,1004.45
2019-03-01T04:33:59.800Z,1004.48
2019-03-01T04:35:11.316Z,1004.48
2019-03-01T04:36:21.333Z,1004.43
2019-03-01T04:37:30.781Z,1004.43
2019-03-01T04:38:39.992Z,1004.46
2019-03-01T04:39:49.958Z,1004.38
2019-03-01T04:40:59.898Z,1004.37
2019-03-01T04:42:09.841Z,1004.35
2019-03-01T04:43:19.799Z,1004.36
2019-03-01T04:44:29.750Z,1004.31
2019-03-01T04:45:39.690Z,1004.29
2019-03-01T04:46:49.636Z,1004.27
2019-03-01T04:47:59.327Z,1004.27
2019-03-01T04:49:09.299Z,1004.27
2019-03-01T04:50:19.245Z,1004.23
2019-03-01T04:51:29.199Z,1004.23
2019-03-01T04:52:47.679Z,1004.2
2019-03-01T04:53:57.646Z,1004.22
2019-03-01T04:55:07.330Z,1004.18
2019-03-01T04:56:17.337Z,1004.22
2019-03-01T04:57:29.468Z,1004.16
2019-03-01T04:58:39.163Z,1004.14
2019-03-01T04:59:48.878Z,1004.14
2019-03-01T05:00:58.573Z,1004.12
2019-03-01T05:02:08.280Z,1004.05
2019-03-01T05:03:18.002Z,1004.06
2019-03-01T05:04:27.979Z,1004.02
2019-03-01T05:05:37.671Z,1004.03
2019-03-01T05:06:47.117Z,1004.02
2019-03-01T05:07:56.801Z,1003.98
2019-03-01T05:09:06.738Z,1003.96
2019-03-01T05:10:16.689Z,1003.99
2019-03-01T05:11:26.137Z,1003.99
2019-03-01T05:12:36.103Z,1003.98
2019-03-01T05:13:46.052Z,1003.98
2019-03-01T05:14:55.986Z,1003.95
2019-03-01T05:16:05.422Z,1003.98
2019-03-01T05:17:15.366Z,1004.02
2019-03-01T05:18:25.063Z,1004.03
2019-03-01T05:19:35.015Z,1004
2019-03-01T05:20:44.701Z,1004
2019-03-01T05:21:54.417Z,1004.03
2019-03-01T05:23:04.124Z,1003.99
2019-03-01T05:24:13.565Z,1004
2019-03-01T05:25:23.510Z,1004.02
2019-03-01T05:26:33.455Z,1004.01
2019-03-01T05:27:43.402Z,1004.05
2019-03-01T05:28:53.340Z,1004.05
2019-03-01T05:30:03.290Z,1004.09
2019-03-01T05:31:13.236Z,1004.12
2019-03-01T05:32:23.185Z,1004.14
2019-03-01T05:33:33.141Z,1004.13
2019-03-01T05:34:42.843Z,1004.09
2019-03-01T05:35:52.780Z,1004.08
2019-03-01T05:37:02.759Z,1004.07
2019-03-01T05:38:21.269Z,1004.13
2019-03-01T05:39:31.477Z,1004.15
2019-03-01T05:40:40.915Z,1004.13
2019-03-01T05:41:50.865Z,1004.12
2019-03-01T05:43:00.836Z,1004.16
2019-03-01T05:44:10.801Z,1004.21
2019-03-01T05:45:20.769Z,1004.22
2019-03-01T05:46:30.716Z,1004.26
2019-03-01T05:47:40.159Z,1004.23
2019-03-01T05:48:50.104Z,1004.24
2019-03-01T05:49:59.305Z,1004.23
2019-03-01T05:51:09.947Z,1004.22
2019-03-01T05:52:19.919Z,1004.18
2019-03-01T05:53:29.634Z,1004.14
2019-03-01T05:54:39.581Z,1004.08
2019-03-01T05:55:49.550Z,1004.07
2019-03-01T05:56:59.242Z,1004.1
2019-03-01T05:58:16.175Z,1004.08
2019-03-01T05:59:26.061Z,1004.07
2019-03-01T06:00:35.779Z,1004.05
2019-03-01T06:01:45.309Z,1004.03
2019-03-01T06:02:55.256Z,1004.09
2019-03-01T06:04:04.702Z,1004.06
2019-03-01T06:05:14.154Z,1004.09
2019-03-01T06:06:25.555Z,1004.1
2019-03-01T06:07:35.499Z,1004.11
2019-03-01T06:08:45.206Z,1004.08
2019-03-01T06:09:54.901Z,1004.09
2019-03-01T06:11:04.847Z,1004.08
2019-03-01T06:12:14.556Z,1004.08
2019-03-01T06:13:24.249Z,1004.03
2019-03-01T06:14:34.192Z,1004.05
2019-03-01T06:15:44.142Z,1004.07
2019-03-01T06:16:53.583Z,1004.08
2019-03-01T06:18:03.274Z,1004.05
2019-03-01T06:19:13.258Z,1004.09
2019-03-01T06:20:22.963Z,1004.04
2019-03-01T06:21:32.657Z,1004.06
2019-03-01T06:22:42.603Z,1004.04
2019-03-01T06:23:52.551Z,1004.04
2019-03-01T06:25:02.512Z,1004.05
2019-03-01T06:26:12.233Z,1003.97
2019-03-01T06:27:21.916Z,1004.02
2019-03-01T06:28:31.358Z,1004.06
2019-03-01T06:29:41.297Z,1004.05
2019-03-01T06:30:51.954Z,1004.09
2019-03-01T06:32:02.123Z,1004.08
2019-03-01T06:33:12.068Z,1004.08
2019-03-01T06:34:21.785Z,1004.07
2019-03-01T06:35:31.247Z,1004.12
2019-03-01T06:36:40.955Z,1004.11
2019-03-01T06:37:50.943Z,1004.1
2019-03-01T06:39:00.398Z,1004.11
2019-03-01T06:40:10.337Z,1004.1
2019-03-01T06:41:20.031Z,1004.16
2019-03-01T06:42:29.981Z,1004.16
2019-03-01T06:43:39.947Z,1004.16
2019-03-01T06:44:49.897Z,1004.18
2019-03-01T06:45:59.597Z,1004.21
2019-03-01T06:47:09.304Z,1004.22
2019-03-01T06:48:19.245Z,1004.23
2019-03-01T06:49:29.202Z,1004.27
2019-03-01T06:50:38.913Z,1004.29
2019-03-01T06:51:48.642Z,1004.28
2019-03-01T06:52:58.617Z,1004.28
2019-03-01T06:54:08.347Z,1004.32
2019-03-01T06:55:18.323Z,1004.34
2019-03-01T06:56:28.275Z,1004.33
2019-03-01T06:57:38.233Z,1004.37
2019-03-01T06:58:47.945Z,1004.4
2019-03-01T06:59:57.913Z,1004.42
2019-03-01T07:01:08.153Z,1004.37
2019-03-01T07:02:18.112Z,1004.4
2019-03-01T07:03:28.091Z,1004.44
2019-03-01T07:04:37.805Z,1004.47
2019-03-01T07:05:47.751Z,1004.46
2019-03-01T07:07:06.157Z,1004.48
2019-03-01T07:08:15.849Z,1004.44
2019-03-01T07:09:25.815Z,1004.42
2019-03-01T07:10:35.759Z,1004.42
2019-03-01T07:11:45.737Z,1004.41
2019-03-01T07:12:55.708Z,1004.4
2019-03-01T07:14:05.407Z,1004.39
2019-03-01T07:15:15.127Z,1004.38
2019-03-01T07:16:25.074Z,1004.38
2019-03-01T07:17:35.016Z,1004.41
2019-03-01T07:18:44.960Z,1004.44
2019-03-01T07:19:54.469Z,1004.41
2019-03-01T07:21:04.419Z,1004.46
2019-03-01T07:22:14.123Z,1004.43
2019-03-01T07:23:23.855Z,1004.44
2019-03-01T07:24:41.949Z,1004.39
2019-03-01T07:25:51.675Z,1004.39
2019-03-01T07:27:02.606Z,1004.4
2019-03-01T07:28:12.967Z,1004.39
2019-03-01T07:29:22.919Z,1004.42
2019-03-01T07:30:32.361Z,1004.45
2019-03-01T07:31:42.338Z,1004.45
2019-03-01T07:32:52.381Z,1004.43
2019-03-01T07:34:02.355Z,1004.44
2019-03-01T07:35:12.115Z,1004.45
2019-03-01T07:36:21.835Z,1004.44
2019-03-01T07:37:31.826Z,1004.47
2019-03-01T07:38:41.818Z,1004.47
2019-03-01T07:39:51.784Z,1004.48
2019-03-01T07:41:01.797Z,1004.46
2019-03-01T07:42:11.774Z,1004.51
2019-03-01T07:43:21.245Z,1004.48
2019-03-01T07:44:31.215Z,1004.48
2019-03-01T07:45:40.935Z,1004.44
2019-03-01T07:46:53.107Z,1004.46
2019-03-01T07:48:03.345Z,1004.45
2019-03-01T07:49:13.068Z,1004.46
2019-03-01T07:50:23.135Z,1004.48
2019-03-01T07:51:33.111Z,1004.48
2019-03-01T07:52:43.431Z,1004.48
2019-03-01T07:53:53.136Z,1004.48
2019-03-01T07:55:03.095Z,1004.47
2019-03-01T07:56:14.359Z,1004.46
2019-03-01T07:57:23.819Z,1004.46
2019-03-01T07:58:34.506Z,1004.46
2019-03-01T07:59:44.479Z,1004.47
2019-03-01T08:00:54.728Z,1004.46
2019-03-01T08:02:04.939Z,1004.46
2019-03-01T08:03:15.874Z,1004.47
2019-03-01T08:04:28.712Z,1004.46
2019-03-01T08:05:40.232Z,1004.4
2019-03-01T08:06:50.408Z,1004.45
2019-03-01T08:08:03.436Z,1004.43
2019-03-01T08:09:13.387Z,1004.44
2019-03-01T08:10:23.542Z,1004.47
2019-03-01T08:11:33.299Z,1004.46
2019-03-01T08:12:43.459Z,1004.5
2019-03-01T08:13:55.294Z,1004.5
2019-03-01T08:15:07.969Z,1004.49
2019-03-01T08:16:20.064Z,1004.49
2019-03-01T08:17:32.869Z,1004.5
2019-03-01T08:18:44.049Z,1004.47
2019-03-01T08:19:58.431Z,1004.48
2019-03-01T08:21:09.994Z,1004.45
2019-03-01T08:22:24.839Z,1004.49
2019-03-01T08:23:50.420Z,1004.48
2019-03-01T08:25:00.659Z,1004.49
2019-03-01T08:26:10.636Z,1004.45
2019-03-01T08:27:20.621Z,1004.43
2019-03-01T08:28:32.632Z,1004.45
2019-03-01T08:29:42.365Z,1004.43
2019-03-01T08:30:52.320Z,1004.41
2019-03-01T08:32:02.277Z,1004.4
2019-03-01T08:33:12.248Z,1004.39
2019-03-01T08:34:22.242Z,1004.46
2019-03-01T08:35:32.281Z,1004.46
2019-03-01T08:36:43.522Z,1004.45
2019-03-01T08:37:53.345Z,1004.48
2019-03-01T08:39:04.980Z,1004.47
2019-03-01T08:40:15.750Z,1004.44
2019-03-01T08:41:26.279Z,1004.45
2019-03-01T08:42:36.321Z,1004.43
2019-03-01T08:43:47.945Z,1004.48
2019-03-01T08:44:59.946Z,1004.54
2019-03-01T08:46:10.490Z,1004.51
2019-03-01T08:47:23.192Z,1004.49
2019-03-01T08:48:34.666Z,1004.5
2019-03-01T08:49:44.836Z,1004.51
2019-03-01T08:50:54.790Z,1004.46
2019-03-01T08:52:04.776Z,1004.42
2019-03-01T08:53:15.073Z,1004.45
2019-03-01T08:54:26.497Z,1004.39
2019-03-01T08:55:39.749Z,1004.37
2019-03-01T08:56:50.178Z,1004.42
2019-03-01T08:58:03.351Z,1004.45
2019-03-01T08:59:17.387Z,1004.44
2019-03-01T09:00:28.251Z,1004.5
2019-03-01T09:01:37.971Z,1004.48
2019-03-01T09:02:51.975Z,1004.43
2019-03-01T09:04:01.943Z,1004.48
2019-03-01T09:05:17.340Z,1004.51
2019-03-01T09:06:27.294Z,1004.52
2019-03-01T09:07:37.246Z,1004.53
2019-03-01T09:08:47.210Z,1004.53
2019-03-01T09:09:57.952Z,1004.58
2019-03-01T09:11:09.147Z,1004.59
2019-03-01T09:12:19.982Z,1004.56
2019-03-01T09:13:32.240Z,1004.61
2019-03-01T09:14:43.919Z,1004.58
2019-03-01T09:15:53.652Z,1004.59
2019-03-01T09:17:03.896Z,1004.62
2019-03-01T09:18:14.551Z,1004.66
2019-03-01T09:19:25.208Z,1004.68
2019-03-01T09:20:38.396Z,1004.69
2019-03-01T09:21:50.041Z,1004.71
2019-03-01T09:23:03.287Z,1004.7
2019-03-01T09:24:32.582Z,1004.71
2019-03-01T09:25:44.532Z,1004.7
2019-03-01T09:26:57.210Z,1004.74
2019-03-01T09:28:07.179Z,1004.75
2019-03-01T09:29:18.397Z,1004.71
2019-03-01T09:30:28.637Z,1004.74
2019-03-01T09:31:40.874Z,1004.74
2019-03-01T09:32:51.336Z,1004.74
2019-03-01T09:34:00.813Z,1004.77
2019-03-01T09:35:11.256Z,1004.73
2019-03-01T09:36:21.588Z,1004.74
2019-03-01T09:37:32.455Z,1004.7
2019-03-01T09:38:42.742Z,1004.68
2019-03-01T09:39:54.640Z,1004.67
2019-03-01T09:41:13.146Z,1004.71
2019-03-01T09:42:22.880Z,1004.73
2019-03-01T09:43:32.852Z,1004.7
2019-03-01T09:44:42.842Z,1004.72
2019-03-01T09:45:52.308Z,1004.7
2019-03-01T09:47:01.824Z,1004.68
2019-03-01T09:48:12.958Z,1004.68
2019-03-01T09:49:24.324Z,1004.71
2019-03-01T09:50:36.503Z,1004.71
2019-03-01T09:51:49.948Z,1004.73
2019-03-01T09:53:00.061Z,1004.69
2019-03-01T09:54:10.242Z,1004.71
2019-03-01T09:55:20.060Z,1004.74
2019-03-01T09:56:30.048Z,1004.72
2019-03-01T09:57:39.763Z,1004.74
2019-03-01T09:58:49.497Z,1004.73
2019-03-01T09:59:59.445Z,1004.7
2019-03-01T10:01:09.237Z,1004.69
2019-03-01T10:02:18.727Z,1004.72
2019-03-01T10:03:28.720Z,1004.73
2019-03-01T10:04:38.706Z,1004.77
2019-03-01T10:05:48.662Z,1004.79
2019-03-01T10:06:58.220Z,1004.8
2019-03-01T10:08:07.918Z,1004.78
2019-03-01T10:09:17.652Z,1004.79
2019-03-01T10:10:27.784Z,1004.79
2019-03-01T10:11:37.035Z,1004.75
2019-03-01T10:12:46.732Z,1004.75
2019-03-01T10:13:56.471Z,1004.71
2019-03-01T10:15:06.446Z,1004.7
2019-03-01T10:16:16.153Z,1004.68
2019-03-01T10:17:26.133Z,1004.69
2019-03-01T10:18:36.099Z,1004.68
2019-03-01T10:19:46.091Z,1004.74
2019-03-01T10:20:56.070Z,1004.7
2019-03-01T10:22:05.771Z,1004.71
2019-03-01T10:23:15.480Z,1004.71
2019-03-01T10:24:25.174Z,1004.68
2019-03-01T10:25:35.178Z,1004.68
2019-03-01T10:26:45.187Z,1004.7
2019-03-01T10:27:54.925Z,1004.74
2019-03-01T10:29:04.653Z,1004.74
2019-03-01T10:30:14.412Z,1004.73
2019-03-01T10:31:24.120Z,1004.79
2019-03-01T10:32:34.084Z,1004.76
2019-03-01T10:33:43.798Z,1004.79
2019-03-01T10:34:53.752Z,1004.8
2019-03-01T10:36:03.715Z,1004.79
2019-03-01T10:37:13.696Z,1004.82
2019-03-01T10:38:23.656Z,1004.83
2019-03-01T10:39:33.596Z,1004.81
2019-03-01T10:40:43.567Z,1004.84
2019-03-01T10:41:53.527Z,1004.83
2019-03-01T10:43:03.485Z,1004.83
2019-03-01T10:44:13.193Z,1004.83
2019-03-01T10:45:23.170Z,1004.86
2019-03-01T10:46:33.151Z,1004.82
2019-03-01T10:47:42.852Z,1004.9
2019-03-01T10:48:52.805Z,1004.86
2019-03-01T10:50:02.748Z,1004.9
2019-03-01T10:51:12.461Z,1004.92
2019-03-01T10:52:21.919Z,1004.9
2019-03-01T10:53:31.657Z,1004.97
2019-03-01T10:54:41.410Z,1004.99
2019-03-01T10:55:51.374Z,1004.99
2019-03-01T10:57:01.343Z,1004.99
2019-03-01T10:58:11.053Z,1005.02
2019-03-01T10:59:21.004Z,1004.98
2019-03-01T11:00:30.717Z,1005
2019-03-01T11:01:40.718Z,1005.05
2019-03-01T11:02:50.835Z,1005.03
2019-03-01T11:04:00.781Z,1005.04
2019-03-01T11:05:10.537Z,1005.09
2019-03-01T11:06:20.511Z,1005.09
2019-03-01T11:07:30.465Z,1005.13
2019-03-01T11:08:40.481Z,1005.12
2019-03-01T11:09:50.421Z,1005.1
2019-03-01T11:10:59.915Z,1005.08
2019-03-01T11:12:09.692Z,1005.12
2019-03-01T11:13:19.710Z,1005.13
2019-03-01T11:14:29.673Z,1005.13
2019-03-01T11:15:39.627Z,1005.14
2019-03-01T11:16:49.673Z,1005.15
2019-03-01T11:18:00.124Z,1005.17
2019-03-01T11:19:09.851Z,1005.2
2019-03-01T11:20:19.817Z,1005.16
2019-03-01T11:21:29.770Z,1005.21
2019-03-01T11:22:39.955Z,1005.22
2019-03-01T11:23:49.951Z,1005.21
2019-03-01T11:24:59.671Z,1005.18
2019-03-01T11:26:09.406Z,1005.14
2019-03-01T11:27:19.364Z,1005.15
2019-03-01T11:28:29.075Z,1005.15
2019-03-01T11:29:38.779Z,1005.21
2019-03-01T11:30:48.726Z,1005.22
2019-03-01T11:31:58.679Z,1005.24
2019-03-01T11:33:08.397Z,1005.23
2019-03-01T11:34:18.095Z,1005.28
2019-03-01T11:35:27.804Z,1005.26
2019-03-01T11:36:37.780Z,1005.26
2019-03-01T11:37:47.501Z,1005.29
2019-03-01T11:38:56.959Z,1005.27
2019-03-01T11:40:06.928Z,1005.26
2019-03-01T11:41:16.648Z,1005.27
2019-03-01T11:42:26.621Z,1005.21
2019-03-01T11:43:36.593Z,1005.21
2019-03-01T11:44:46.554Z,1005.22
2019-03-01T11:45:56.506Z,1005.18
2019-03-01T11:47:08.089Z,1005.2
2019-03-01T11:48:18.061Z,1005.19
2019-03-01T11:49:28.045Z,1005.23
2019-03-01T11:50:37.999Z,1005.2
2019-03-01T11:51:47.951Z,1005.23
2019-03-01T11:52:57.949Z,1005.23
2019-03-01T11:54:07.919Z,1005.24
2019-03-01T11:55:17.868Z,1005.27
2019-03-01T11:56:27.815Z,1005.27
2019-03-01T11:57:37.782Z,1005.3
2019-03-01T11:58:47.527Z,1005.32
2019-03-01T11:59:57.487Z,1005.33
2019-03-01T12:01:16.640Z,1005.35
2019-03-01T12:02:26.603Z,1005.38
2019-03-01T12:03:36.319Z,1005.31
2019-03-01T12:04:46.312Z,1005.32
2019-03-01T12:05:56.016Z,1005.3
2019-03-01T12:07:06.011Z,1005.29
2019-03-01T12:08:16.005Z,1005.31
2019-03-01T12:09:25.973Z,1005.29
2019-03-01T12:10:35.958Z,1005.3
2019-03-01T12:11:45.666Z,1005.28
2019-03-01T12:12:55.635Z,1005.31
2019-03-01T12:14:05.349Z,1005.36
2019-03-01T12:15:15.062Z,1005.35
2019-03-01T12:16:25.019Z,1005.35
2019-03-01T12:17:34.984Z,1005.34
2019-03-01T12:18:44.697Z,1005.37
2019-03-01T12:19:54.649Z,1005.37
2019-03-01T12:21:04.611Z,1005.37
2019-03-01T12:22:17.036Z,1005.4
2019-03-01T12:23:27.291Z,1005.42
2019-03-01T12:24:37.243Z,1005.39
2019-03-01T12:25:46.967Z,1005.38
2019-03-01T12:26:56.677Z,1005.41
2019-03-01T12:28:06.640Z,1005.44
2019-03-01T12:29:16.350Z,1005.39
2019-03-01T12:30:26.323Z,1005.38
2019-03-01T12:31:36.293Z,1005.36
2019-03-01T12:32:45.987Z,1005.35
2019-03-01T12:33:55.683Z,1005.31
2019-03-01T12:35:05.418Z,1005.34
2019-03-01T12:36:15.147Z,1005.34
2019-03-01T12:37:25.118Z,1005.33
2019-03-01T12:38:35.085Z,1005.37
2019-03-01T12:39:44.794Z,1005.39
2019-03-01T12:40:54.241Z,1005.38
2019-03-01T12:42:04.212Z,1005.37
2019-03-01T12:43:14.176Z,1005.39
2019-03-01T12:44:24.126Z,1005.38
2019-03-01T12:45:33.819Z,1005.38
2019-03-01T12:46:44.018Z,1005.41
2019-03-01T12:47:53.717Z,1005.44
2019-03-01T12:49:03.683Z,1005.45
2019-03-01T12:50:13.632Z,1005.41
2019-03-01T12:51:23.595Z,1005.47
2019-03-01T12:52:33.047Z,1005.52
2019-03-01T12:53:42.739Z,1005.5
2019-03-01T12:54:52.453Z,1005.49
2019-03-01T12:56:02.399Z,1005.56
2019-03-01T12:57:12.365Z,1005.58
2019-03-01T12:58:22.068Z,1005.6
2019-03-01T12:59:31.766Z,1005.56
2019-03-01T13:00:41.712Z,1005.59
2019-03-01T13:01:51.417Z,1005.63
2019-03-01T13:03:00.885Z,1005.63
2019-03-01T13:04:15.568Z,1005.64
2019-03-01T13:05:29.097Z,1005.69
2019-03-01T13:06:39.958Z,1005.75
2019-03-01T13:07:49.935Z,1005.73
2019-03-01T13:09:01.793Z,1005.79
2019-03-01T13:10:12.375Z,1005.73
2019-03-01T13:11:22.320Z,1005.77
2019-03-01T13:12:32.028Z,1005.79
2019-03-01T13:13:41.459Z,1005.79
2019-03-01T13:14:51.417Z,1005.84
2019-03-01T13:16:01.127Z,1005.84
2019-03-01T13:17:11.087Z,1005.83
2019-03-01T13:18:21.037Z,1005.92
2019-03-01T13:19:30.741Z,1005.9
2019-03-01T13:20:40.453Z,1005.95
2019-03-01T13:21:50.413Z,1005.93
2019-03-01T13:23:00.796Z,1005.98
2019-03-01T13:24:16.342Z,1006.02
2019-03-01T13:25:29.244Z,1006.04
2019-03-01T13:26:40.733Z,1006.03
2019-03-01T13:27:52.356Z,1006.07
2019-03-01T13:29:02.375Z,1006.02
2019-03-01T13:30:11.831Z,1006.06
2019-03-01T13:31:21.275Z,1006.06
2019-03-01T13:32:31.230Z,1006.07
2019-03-01T13:33:41.173Z,1006.09
2019-03-01T13:34:51.120Z,1006.13
2019-03-01T13:36:03.446Z,1006.14
2019-03-01T13:37:20.081Z,1006.16
2019-03-01T13:38:33.353Z,1006.19
2019-03-01T13:39:44.931Z,1006.18
2019-03-01T13:40:58.749Z,1006.15
2019-03-01T13:42:13.352Z,1006.19
2019-03-01T13:43:23.721Z,1006.16
2019-03-01T13:44:39.760Z,1006.22
2019-03-01T13:45:52.545Z,1006.25
2019-03-01T13:47:05.260Z,1006.26
2019-03-01T13:48:18.903Z,1006.23
2019-03-01T13:49:30.257Z,1006.27
2019-03-01T13:50:41.485Z,1006.3
2019-03-01T13:51:52.843Z,1006.27
2019-03-01T13:53:03.510Z,1006.32
2019-03-01T13:54:14.246Z,1006.29
2019-03-01T13:55:24.381Z,1006.32
2019-03-01T13:56:35.961Z,1006.36
2019-03-01T13:57:45.910Z,1006.36
2019-03-01T13:58:59.499Z,1006.35
2019-03-01T14:00:12.577Z,1006.38
2019-03-01T14:01:23.633Z,1006.42
2019-03-01T14:02:36.747Z,1006.45
2019-03-01T14:03:50.263Z,1006.46
2019-03-01T14:05:05.777Z,1006.43
2019-03-01T14:06:20.066Z,1006.4
2019-03-01T14:07:30.028Z,1006.49
2019-03-01T14:08:39.503Z,1006.5
2019-03-01T14:09:48.749Z,1006.51
2019-03-01T14:11:01.404Z,1006.5
2019-03-01T14:12:11.161Z,1006.51
2019-03-01T14:13:21.144Z,1006.5